sensor_id;sensor_type;location;lat;lon;timestamp;temperature;humidity
20714;DHT22;10518;50.742;4.226;2022-12-18T00:02:21;-3.30;99.90
20714;DHT22;10518;50.742;4.226;2022-12-18T00:04:47;-3.30;99.90
20714;DHT22;10518;50.742;4.226;2022-12-18T00:07:13;-3.30;99.90
20714;DHT22;10518;50.742;4.226;2022-12-18T00:09:38;-3.30;99.90
20714;DHT22;10518;50.742;4.226;2022-12-18T00:12:04;-3.30;99.90
20714;DHT22;10518;50.742;4.226;2022-12-18T00:14:29;-3.40;99.90
20714;DHT22;10518;50.742;4.226;2022-12-18T00:16:55;-3.30;99.90
20714;DHT22;10518;50.742;4.226;2022-12-18T00:19:21;-3.30;99.90
20714;DHT22;10518;50.742;4.226;2022-12-18T00:21:46;-3.20;99.90
20714;DHT22;10518;50.742;4.226;2022-12-18T00:24:12;-3.30;99.90
20714;DHT22;10518;50.742;4.226;2022-12-18T00:26:38;-3.30;99.90
20714;DHT22;10518;50.742;4.226;2022-12-18T00:29:11;-3.30;99.90
20714;DHT22;10518;50.742;4.226;2022-12-18T00:31:39;-3.20;99.90
20714;DHT22;10518;50.742;4.226;2022-12-18T00:34:05;-3.20;99.90
20714;DHT22;10518;50.742;4.226;2022-12-18T00:36:33;-3.20;99.90
20714;DHT22;10518;50.742;4.226;2022-12-18T00:39:00;-3.20;99.90
20714;DHT22;10518;50.742;4.226;2022-12-18T00:41:26;-3.20;99.90
20714;DHT22;10518;50.742;4.226;2022-12-18T00:44:13;-3.20;99.90
20714;DHT22;10518;50.742;4.226;2022-12-18T00:46:39;-3.40;99.90
20714;DHT22;10518;50.742;4.226;2022-12-18T00:49:05;-3.30;99.90
20714;DHT22;10518;50.742;4.226;2022-12-18T00:51:31;-3.30;99.90
20714;DHT22;10518;50.742;4.226;2022-12-18T00:53:57;-3.30;99.90
20714;DHT22;10518;50.742;4.226;2022-12-18T00:56:23;-3.30;99.90
20714;DHT22;10518;50.742;4.226;2022-12-18T00:58:49;-3.40;99.90
20714;DHT22;10518;50.742;4.226;2022-12-18T01:01:14;-3.30;99.90
20714;DHT22;10518;50.742;4.226;2022-12-18T01:03:40;-3.30;99.90
20714;DHT22;10518;50.742;4.226;2022-12-18T01:06:10;-3.20;99.90
20714;DHT22;10518;50.742;4.226;2022-12-18T01:08:37;-3.10;99.90
20714;DHT22;10518;50.742;4.226;2022-12-18T01:11:08;-3.00;99.90
20714;DHT22;10518;50.742;4.226;2022-12-18T01:13:35;-3.00;99.90
20714;DHT22;10518;50.742;4.226;2022-12-18T01:16:00;-3.00;99.90
20714;DHT22;10518;50.742;4.226;2022-12-18T01:18:26;-3.10;99.90
20714;DHT22;10518;50.742;4.226;2022-12-18T01:20:51;-3.10;99.90
20714;DHT22;10518;50.742;4.226;2022-12-18T01:23:17;-3.10;99.90
20714;DHT22;10518;50.742;4.226;2022-12-18T01:25:42;-3.10;99.90
20714;DHT22;10518;50.742;4.226;2022-12-18T01:28:08;-3.30;99.90
20714;DHT22;10518;50.742;4.226;2022-12-18T01:30:33;-3.40;99.90
20714;DHT22;10518;50.742;4.226;2022-12-18T01:32:59;-3.50;99.90
20714;DHT22;10518;50.742;4.226;2022-12-18T01:35:24;-3.50;99.90
20714;DHT22;10518;50.742;4.226;2022-12-18T01:37:54;-3.50;99.90
20714;DHT22;10518;50.742;4.226;2022-12-18T01:40:20;-3.60;99.90
20714;DHT22;10518;50.742;4.226;2022-12-18T01:42:53;-3.60;99.90
20714;DHT22;10518;50.742;4.226;2022-12-18T01:45:25;-3.60;99.90
20714;DHT22;10518;50.742;4.226;2022-12-18T01:47:55;-3.70;99.90
20714;DHT22;10518;50.742;4.226;2022-12-18T01:50:31;-3.80;99.90
20714;DHT22;10518;50.742;4.226;2022-12-18T01:53:15;-3.80;99.90
20714;DHT22;10518;50.742;4.226;2022-12-18T01:55:51;-3.70;99.90
20714;DHT22;10518;50.742;4.226;2022-12-18T01:58:18;-3.80;99.90
20714;DHT22;10518;50.742;4.226;2022-12-18T02:00:43;-3.70;99.90
20714;DHT22;10518;50.742;4.226;2022-12-18T02:03:09;-3.70;99.90
20714;DHT22;10518;50.742;4.226;2022-12-18T02:06:00;-3.70;99.90
20714;DHT22;10518;50.742;4.226;2022-12-18T02:11:55;-3.90;99.90
20714;DHT22;10518;50.742;4.226;2022-12-18T02:14:40;-3.80;99.90
20714;DHT22;10518;50.742;4.226;2022-12-18T02:17:26;-3.90;99.90
20714;DHT22;10518;50.742;4.226;2022-12-18T02:20:18;-4.00;99.90
20714;DHT22;10518;50.742;4.226;2022-12-18T02:23:06;-3.90;99.90
20714;DHT22;10518;50.742;4.226;2022-12-18T02:28:02;-3.80;99.90
20714;DHT22;10518;50.742;4.226;2022-12-18T02:30:31;-4.00;99.90
20714;DHT22;10518;50.742;4.226;2022-12-18T02:33:00;-4.00;99.90
20714;DHT22;10518;50.742;4.226;2022-12-18T02:35:28;-4.00;99.90
20714;DHT22;10518;50.742;4.226;2022-12-18T02:37:55;-3.90;99.90
20714;DHT22;10518;50.742;4.226;2022-12-18T02:40:23;-4.00;99.90
20714;DHT22;10518;50.742;4.226;2022-12-18T02:42:49;-4.10;99.90
20714;DHT22;10518;50.742;4.226;2022-12-18T02:45:15;-4.20;99.90
20714;DHT22;10518;50.742;4.226;2022-12-18T02:47:43;-4.20;99.90
20714;DHT22;10518;50.742;4.226;2022-12-18T02:50:21;-4.20;99.90
20714;DHT22;10518;50.742;4.226;2022-12-18T02:59:00;-4.20;99.90
20714;DHT22;10518;50.742;4.226;2022-12-18T03:04:14;-4.20;99.90
20714;DHT22;10518;50.742;4.226;2022-12-18T03:06:44;-4.20;99.90
20714;DHT22;10518;50.742;4.226;2022-12-18T03:09:17;-4.20;99.90
20714;DHT22;10518;50.742;4.226;2022-12-18T03:11:48;-4.20;99.90
20714;DHT22;10518;50.742;4.226;2022-12-18T03:14:36;-4.10;99.90
20714;DHT22;10518;50.742;4.226;2022-12-18T03:17:04;-4.20;99.90
20714;DHT22;10518;50.742;4.226;2022-12-18T03:19:32;-4.10;99.90
20714;DHT22;10518;50.742;4.226;2022-12-18T03:22:00;-4.10;99.90
20714;DHT22;10518;50.742;4.226;2022-12-18T03:24:28;-4.10;99.90
20714;DHT22;10518;50.742;4.226;2022-12-18T03:26:58;-4.20;99.90
20714;DHT22;10518;50.742;4.226;2022-12-18T03:29:38;-4.20;99.90
20714;DHT22;10518;50.742;4.226;2022-12-18T03:32:12;-4.20;99.90
20714;DHT22;10518;50.742;4.226;2022-12-18T03:34:42;-4.20;99.90
20714;DHT22;10518;50.742;4.226;2022-12-18T03:37:09;-4.20;99.90
20714;DHT22;10518;50.742;4.226;2022-12-18T03:39:35;-4.20;99.90
20714;DHT22;10518;50.742;4.226;2022-12-18T03:48:00;-4.00;99.90
20714;DHT22;10518;50.742;4.226;2022-12-18T03:50:16;-4.00;99.90
20714;DHT22;10518;50.742;4.226;2022-12-18T03:52:58;-3.70;99.90
20714;DHT22;10518;50.742;4.226;2022-12-18T03:55:27;-3.80;99.90
20714;DHT22;10518;50.742;4.226;2022-12-18T03:57:55;-3.80;99.90
20714;DHT22;10518;50.742;4.226;2022-12-18T04:00:22;-3.90;99.90
20714;DHT22;10518;50.742;4.226;2022-12-18T04:02:51;-3.90;99.90
20714;DHT22;10518;50.742;4.226;2022-12-18T04:05:19;-3.90;99.90
20714;DHT22;10518;50.742;4.226;2022-12-18T04:07:47;-3.90;99.90
20714;DHT22;10518;50.742;4.226;2022-12-18T04:10:17;-3.90;99.90
20714;DHT22;10518;50.742;4.226;2022-12-18T04:12:43;-4.00;99.90
20714;DHT22;10518;50.742;4.226;2022-12-18T04:15:10;-4.00;99.90
20714;DHT22;10518;50.742;4.226;2022-12-18T04:17:36;-4.00;99.90
20714;DHT22;10518;50.742;4.226;2022-12-18T04:20:03;-3.90;99.90
20714;DHT22;10518;50.742;4.226;2022-12-18T04:22:28;-3.90;99.90
20714;DHT22;10518;50.742;4.226;2022-12-18T04:24:54;-3.90;99.90
20714;DHT22;10518;50.742;4.226;2022-12-18T04:27:20;-3.80;99.90
20714;DHT22;10518;50.742;4.226;2022-12-18T04:29:45;-3.90;99.90
20714;DHT22;10518;50.742;4.226;2022-12-18T04:32:11;-3.80;99.90
20714;DHT22;10518;50.742;4.226;2022-12-18T04:34:36;-3.80;99.90
20714;DHT22;10518;50.742;4.226;2022-12-18T04:37:02;-3.80;99.90
20714;DHT22;10518;50.742;4.226;2022-12-18T04:39:27;-3.90;99.90
20714;DHT22;10518;50.742;4.226;2022-12-18T04:41:53;-4.00;99.90
20714;DHT22;10518;50.742;4.226;2022-12-18T04:44:19;-4.00;99.90
20714;DHT22;10518;50.742;4.226;2022-12-18T04:46:44;-4.10;99.90
20714;DHT22;10518;50.742;4.226;2022-12-18T04:49:10;-3.90;99.90
20714;DHT22;10518;50.742;4.226;2022-12-18T04:51:38;-4.00;99.90
20714;DHT22;10518;50.742;4.226;2022-12-18T04:54:04;-4.00;99.90
20714;DHT22;10518;50.742;4.226;2022-12-18T04:56:31;-4.00;99.90
20714;DHT22;10518;50.742;4.226;2022-12-18T04:58:57;-4.00;99.90
20714;DHT22;10518;50.742;4.226;2022-12-18T05:01:22;-4.00;99.90
20714;DHT22;10518;50.742;4.226;2022-12-18T05:03:48;-4.00;99.90
20714;DHT22;10518;50.742;4.226;2022-12-18T05:06:14;-4.10;99.90
20714;DHT22;10518;50.742;4.226;2022-12-18T05:08:40;-4.00;99.90
20714;DHT22;10518;50.742;4.226;2022-12-18T05:11:12;-3.90;99.90
20714;DHT22;10518;50.742;4.226;2022-12-18T05:13:41;-3.80;99.90
20714;DHT22;10518;50.742;4.226;2022-12-18T05:16:07;-3.90;99.90
20714;DHT22;10518;50.742;4.226;2022-12-18T05:18:32;-3.90;99.90
20714;DHT22;10518;50.742;4.226;2022-12-18T05:20:58;-3.90;99.90
20714;DHT22;10518;50.742;4.226;2022-12-18T05:23:24;-3.80;99.90
20714;DHT22;10518;50.742;4.226;2022-12-18T05:25:58;-3.80;99.90
20714;DHT22;10518;50.742;4.226;2022-12-18T05:28:26;-3.80;99.90
20714;DHT22;10518;50.742;4.226;2022-12-18T05:30:54;-3.70;99.90
20714;DHT22;10518;50.742;4.226;2022-12-18T05:33:21;-3.70;99.90
20714;DHT22;10518;50.742;4.226;2022-12-18T05:35:51;-3.70;99.90
20714;DHT22;10518;50.742;4.226;2022-12-18T05:38:18;-3.60;99.90
20714;DHT22;10518;50.742;4.226;2022-12-18T05:40:43;-3.60;99.90
20714;DHT22;10518;50.742;4.226;2022-12-18T05:43:10;-3.60;99.90
20714;DHT22;10518;50.742;4.226;2022-12-18T05:45:39;-3.60;99.90
20714;DHT22;10518;50.742;4.226;2022-12-18T05:48:05;-3.60;99.90
20714;DHT22;10518;50.742;4.226;2022-12-18T05:50:37;-3.70;99.90
20714;DHT22;10518;50.742;4.226;2022-12-18T05:53:03;-3.60;99.90
20714;DHT22;10518;50.742;4.226;2022-12-18T05:55:32;-3.70;99.90
20714;DHT22;10518;50.742;4.226;2022-12-18T05:57:57;-3.70;99.90
20714;DHT22;10518;50.742;4.226;2022-12-18T06:00:23;-3.80;99.90
20714;DHT22;10518;50.742;4.226;2022-12-18T06:02:48;-3.80;99.90
20714;DHT22;10518;50.742;4.226;2022-12-18T06:05:14;-3.90;99.90
20714;DHT22;10518;50.742;4.226;2022-12-18T06:07:40;-3.90;99.90
20714;DHT22;10518;50.742;4.226;2022-12-18T06:10:06;-3.90;99.90
20714;DHT22;10518;50.742;4.226;2022-12-18T06:12:31;-4.10;99.90
20714;DHT22;10518;50.742;4.226;2022-12-18T06:14:59;-4.10;99.90
20714;DHT22;10518;50.742;4.226;2022-12-18T06:17:28;-4.00;99.90
20714;DHT22;10518;50.742;4.226;2022-12-18T06:19:54;-4.10;99.90
20714;DHT22;10518;50.742;4.226;2022-12-18T06:22:20;-4.10;99.90
20714;DHT22;10518;50.742;4.226;2022-12-18T06:24:46;-4.20;99.90
20714;DHT22;10518;50.742;4.226;2022-12-18T06:27:11;-4.20;99.90
20714;DHT22;10518;50.742;4.226;2022-12-18T06:29:37;-4.30;99.90
20714;DHT22;10518;50.742;4.226;2022-12-18T06:32:02;-4.20;99.90
20714;DHT22;10518;50.742;4.226;2022-12-18T06:34:28;-4.20;99.90
20714;DHT22;10518;50.742;4.226;2022-12-18T06:36:53;-4.10;99.90
20714;DHT22;10518;50.742;4.226;2022-12-18T06:39:19;-4.10;99.90
20714;DHT22;10518;50.742;4.226;2022-12-18T06:41:44;-4.10;99.90
20714;DHT22;10518;50.742;4.226;2022-12-18T06:44:10;-4.00;99.90
20714;DHT22;10518;50.742;4.226;2022-12-18T06:46:36;-4.00;99.90
20714;DHT22;10518;50.742;4.226;2022-12-18T06:49:03;-4.00;99.90
20714;DHT22;10518;50.742;4.226;2022-12-18T06:51:28;-4.00;99.90
20714;DHT22;10518;50.742;4.226;2022-12-18T06:53:54;-4.00;99.90
20714;DHT22;10518;50.742;4.226;2022-12-18T06:56:20;-4.00;99.90
20714;DHT22;10518;50.742;4.226;2022-12-18T06:58:45;-4.10;99.90
20714;DHT22;10518;50.742;4.226;2022-12-18T07:01:12;-3.90;99.90
20714;DHT22;10518;50.742;4.226;2022-12-18T07:03:39;-4.00;99.90
20714;DHT22;10518;50.742;4.226;2022-12-18T07:06:05;-4.00;99.90
20714;DHT22;10518;50.742;4.226;2022-12-18T07:08:31;-4.10;99.90
20714;DHT22;10518;50.742;4.226;2022-12-18T07:10:57;-4.20;99.90
20714;DHT22;10518;50.742;4.226;2022-12-18T07:13:23;-4.10;99.90
20714;DHT22;10518;50.742;4.226;2022-12-18T07:15:49;-4.20;99.90
20714;DHT22;10518;50.742;4.226;2022-12-18T07:18:15;-4.30;99.90
20714;DHT22;10518;50.742;4.226;2022-12-18T07:20:40;-4.30;99.90
20714;DHT22;10518;50.742;4.226;2022-12-18T07:23:06;-4.20;99.90
20714;DHT22;10518;50.742;4.226;2022-12-18T07:25:35;-4.00;99.90
20714;DHT22;10518;50.742;4.226;2022-12-18T07:28:01;-4.00;99.90
20714;DHT22;10518;50.742;4.226;2022-12-18T07:30:26;-4.10;99.90
20714;DHT22;10518;50.742;4.226;2022-12-18T07:32:52;-4.20;99.90
20714;DHT22;10518;50.742;4.226;2022-12-18T07:35:17;-4.00;99.90
20714;DHT22;10518;50.742;4.226;2022-12-18T07:37:44;-3.90;99.90
20714;DHT22;10518;50.742;4.226;2022-12-18T07:40:10;-3.90;99.90
20714;DHT22;10518;50.742;4.226;2022-12-18T07:42:36;-3.90;99.90
20714;DHT22;10518;50.742;4.226;2022-12-18T07:45:03;-3.80;99.90
20714;DHT22;10518;50.742;4.226;2022-12-18T07:47:29;-3.70;99.90
20714;DHT22;10518;50.742;4.226;2022-12-18T07:49:54;-3.50;99.90
20714;DHT22;10518;50.742;4.226;2022-12-18T07:52:20;-3.40;99.90
20714;DHT22;10518;50.742;4.226;2022-12-18T07:54:46;-3.40;99.90
20714;DHT22;10518;50.742;4.226;2022-12-18T07:57:14;-3.20;99.90
20714;DHT22;10518;50.742;4.226;2022-12-18T07:59:40;-3.10;99.90
20714;DHT22;10518;50.742;4.226;2022-12-18T08:02:05;-3.00;99.90
20714;DHT22;10518;50.742;4.226;2022-12-18T08:04:31;-2.90;99.90
20714;DHT22;10518;50.742;4.226;2022-12-18T08:06:56;-2.70;99.90
20714;DHT22;10518;50.742;4.226;2022-12-18T08:09:22;-2.70;99.90
20714;DHT22;10518;50.742;4.226;2022-12-18T08:11:48;-2.90;99.90
20714;DHT22;10518;50.742;4.226;2022-12-18T08:14:13;-2.80;99.90
20714;DHT22;10518;50.742;4.226;2022-12-18T08:16:40;-2.70;99.90
20714;DHT22;10518;50.742;4.226;2022-12-18T08:19:05;-2.70;99.90
20714;DHT22;10518;50.742;4.226;2022-12-18T08:21:31;-2.50;99.90
20714;DHT22;10518;50.742;4.226;2022-12-18T08:23:59;-2.50;99.90
20714;DHT22;10518;50.742;4.226;2022-12-18T08:26:26;-2.40;99.90
20714;DHT22;10518;50.742;4.226;2022-12-18T08:28:57;-2.20;99.90
20714;DHT22;10518;50.742;4.226;2022-12-18T08:31:23;-2.20;99.90
20714;DHT22;10518;50.742;4.226;2022-12-18T08:33:50;-2.10;99.90
20714;DHT22;10518;50.742;4.226;2022-12-18T08:36:16;-2.00;99.90
20714;DHT22;10518;50.742;4.226;2022-12-18T08:38:42;-1.90;99.90
20714;DHT22;10518;50.742;4.226;2022-12-18T08:41:10;-1.70;99.90
20714;DHT22;10518;50.742;4.226;2022-12-18T08:43:36;-1.60;99.90
20714;DHT22;10518;50.742;4.226;2022-12-18T08:46:22;-1.60;99.90
20714;DHT22;10518;50.742;4.226;2022-12-18T08:48:48;-1.50;99.90
20714;DHT22;10518;50.742;4.226;2022-12-18T08:51:16;-1.40;99.90
20714;DHT22;10518;50.742;4.226;2022-12-18T08:53:42;-1.20;99.90
20714;DHT22;10518;50.742;4.226;2022-12-18T08:56:07;-1.00;99.90
20714;DHT22;10518;50.742;4.226;2022-12-18T08:58:33;-0.90;99.90
20714;DHT22;10518;50.742;4.226;2022-12-18T09:01:04;-0.90;99.90
20714;DHT22;10518;50.742;4.226;2022-12-18T09:03:30;-0.90;99.90
20714;DHT22;10518;50.742;4.226;2022-12-18T09:05:56;-0.90;99.90
20714;DHT22;10518;50.742;4.226;2022-12-18T09:08:22;-0.70;99.90
20714;DHT22;10518;50.742;4.226;2022-12-18T09:10:49;-0.60;99.90
20714;DHT22;10518;50.742;4.226;2022-12-18T09:13:15;-0.50;99.90
20714;DHT22;10518;50.742;4.226;2022-12-18T09:15:49;-0.50;99.90
20714;DHT22;10518;50.742;4.226;2022-12-18T09:18:16;-0.60;99.90
20714;DHT22;10518;50.742;4.226;2022-12-18T09:20:42;-0.60;99.90
20714;DHT22;10518;50.742;4.226;2022-12-18T09:23:09;-0.40;99.90
20714;DHT22;10518;50.742;4.226;2022-12-18T09:25:35;-0.20;99.90
20714;DHT22;10518;50.742;4.226;2022-12-18T09:28:15;-0.10;99.90
20714;DHT22;10518;50.742;4.226;2022-12-18T09:30:43;-0.10;99.90
20714;DHT22;10518;50.742;4.226;2022-12-18T09:33:09;0.00;99.90
20714;DHT22;10518;50.742;4.226;2022-12-18T09:35:39;0.10;99.90
20714;DHT22;10518;50.742;4.226;2022-12-18T09:38:05;0.30;99.90
20714;DHT22;10518;50.742;4.226;2022-12-18T09:40:36;0.30;99.90
20714;DHT22;10518;50.742;4.226;2022-12-18T09:43:05;0.30;99.90
20714;DHT22;10518;50.742;4.226;2022-12-18T09:45:44;0.40;99.90
20714;DHT22;10518;50.742;4.226;2022-12-18T09:48:21;0.50;99.90
20714;DHT22;10518;50.742;4.226;2022-12-18T09:50:50;0.50;99.90
20714;DHT22;10518;50.742;4.226;2022-12-18T09:53:22;0.50;99.90
20714;DHT22;10518;50.742;4.226;2022-12-18T09:55:50;0.50;99.90
20714;DHT22;10518;50.742;4.226;2022-12-18T09:58:39;0.70;99.90
20714;DHT22;10518;50.742;4.226;2022-12-18T10:01:11;0.80;99.90
20714;DHT22;10518;50.742;4.226;2022-12-18T10:03:37;0.90;99.90
20714;DHT22;10518;50.742;4.226;2022-12-18T10:06:20;0.90;99.90
20714;DHT22;10518;50.742;4.226;2022-12-18T10:09:01;0.80;99.90
20714;DHT22;10518;50.742;4.226;2022-12-18T10:11:56;0.90;99.90
20714;DHT22;10518;50.742;4.226;2022-12-18T10:14:34;0.90;99.90
20714;DHT22;10518;50.742;4.226;2022-12-18T10:20:13;0.80;99.90
20714;DHT22;10518;50.742;4.226;2022-12-18T10:22:48;1.10;99.90
20714;DHT22;10518;50.742;4.226;2022-12-18T10:25:30;1.20;99.90
20714;DHT22;10518;50.742;4.226;2022-12-18T10:28:12;1.60;99.90
20714;DHT22;10518;50.742;4.226;2022-12-18T10:30:39;1.60;99.90
20714;DHT22;10518;50.742;4.226;2022-12-18T10:33:05;1.60;99.90
20714;DHT22;10518;50.742;4.226;2022-12-18T10:35:30;1.70;99.90
20714;DHT22;10518;50.742;4.226;2022-12-18T10:40:51;1.90;99.90
20714;DHT22;10518;50.742;4.226;2022-12-18T10:43:39;1.80;99.90
20714;DHT22;10518;50.742;4.226;2022-12-18T10:51:23;2.00;99.90
20714;DHT22;10518;50.742;4.226;2022-12-18T10:54:04;2.10;99.90
20714;DHT22;10518;50.742;4.226;2022-12-18T10:56:33;1.80;99.90
20714;DHT22;10518;50.742;4.226;2022-12-18T10:59:04;2.10;99.90
20714;DHT22;10518;50.742;4.226;2022-12-18T11:04:17;2.10;99.90
20714;DHT22;10518;50.742;4.226;2022-12-18T11:07:04;2.20;99.90
20714;DHT22;10518;50.742;4.226;2022-12-18T11:09:32;2.50;99.90
20714;DHT22;10518;50.742;4.226;2022-12-18T11:12:06;2.60;99.90
20714;DHT22;10518;50.742;4.226;2022-12-18T11:14:45;2.60;99.90
20714;DHT22;10518;50.742;4.226;2022-12-18T11:19:54;2.20;99.90
20714;DHT22;10518;50.742;4.226;2022-12-18T11:22:26;2.10;99.90
20714;DHT22;10518;50.742;4.226;2022-12-18T11:27:37;2.60;99.90
20714;DHT22;10518;50.742;4.226;2022-12-18T11:32:49;2.70;99.90
20714;DHT22;10518;50.742;4.226;2022-12-18T11:37:56;3.00;99.90
20714;DHT22;10518;50.742;4.226;2022-12-18T11:40:32;3.20;99.90
20714;DHT22;10518;50.742;4.226;2022-12-18T11:43:14;3.10;99.90
20714;DHT22;10518;50.742;4.226;2022-12-18T11:45:56;3.10;99.90
20714;DHT22;10518;50.742;4.226;2022-12-18T11:48:32;3.00;99.90
20714;DHT22;10518;50.742;4.226;2022-12-18T11:51:01;2.90;99.90
20714;DHT22;10518;50.742;4.226;2022-12-18T11:53:29;3.00;99.90
20714;DHT22;10518;50.742;4.226;2022-12-18T11:56:06;2.70;99.90
20714;DHT22;10518;50.742;4.226;2022-12-18T11:58:46;2.60;99.90
20714;DHT22;10518;50.742;4.226;2022-12-18T12:01:36;2.60;99.90
20714;DHT22;10518;50.742;4.226;2022-12-18T12:09:51;2.50;99.90
20714;DHT22;10518;50.742;4.226;2022-12-18T12:18:43;2.60;99.90
20714;DHT22;10518;50.742;4.226;2022-12-18T12:21:41;2.80;99.90
20714;DHT22;10518;50.742;4.226;2022-12-18T12:27:25;2.80;99.90
20714;DHT22;10518;50.742;4.226;2022-12-18T12:33:12;2.60;99.90
20714;DHT22;10518;50.742;4.226;2022-12-18T12:38:42;2.80;99.90
20714;DHT22;10518;50.742;4.226;2022-12-18T12:41:13;3.00;99.90
20714;DHT22;10518;50.742;4.226;2022-12-18T12:44:06;3.20;99.90
20714;DHT22;10518;50.742;4.226;2022-12-18T12:46:37;2.80;99.90
20714;DHT22;10518;50.742;4.226;2022-12-18T12:49:11;2.70;99.90
20714;DHT22;10518;50.742;4.226;2022-12-18T12:51:41;2.80;99.90
20714;DHT22;10518;50.742;4.226;2022-12-18T12:54:16;3.00;99.90
20714;DHT22;10518;50.742;4.226;2022-12-18T12:59:49;3.00;99.90
20714;DHT22;10518;50.742;4.226;2022-12-18T13:07:49;3.20;99.90
20714;DHT22;10518;50.742;4.226;2022-12-18T13:15:46;2.70;99.90
20714;DHT22;10518;50.742;4.226;2022-12-18T13:18:18;2.60;99.90
20714;DHT22;10518;50.742;4.226;2022-12-18T13:30:58;3.00;99.90
20714;DHT22;10518;50.742;4.226;2022-12-18T13:33:35;2.90;99.90
20714;DHT22;10518;50.742;4.226;2022-12-18T13:36:10;2.90;99.90
20714;DHT22;10518;50.742;4.226;2022-12-18T13:38:38;3.10;99.90
20714;DHT22;10518;50.742;4.226;2022-12-18T13:41:25;3.00;99.90
20714;DHT22;10518;50.742;4.226;2022-12-18T13:44:07;3.00;99.90
20714;DHT22;10518;50.742;4.226;2022-12-18T13:46:46;3.00;99.90
20714;DHT22;10518;50.742;4.226;2022-12-18T13:51:44;2.70;99.90
20714;DHT22;10518;50.742;4.226;2022-12-18T13:54:35;2.80;99.90
20714;DHT22;10518;50.742;4.226;2022-12-18T13:57:03;2.70;99.90
20714;DHT22;10518;50.742;4.226;2022-12-18T13:59:39;2.50;99.90
20714;DHT22;10518;50.742;4.226;2022-12-18T14:02:14;2.60;99.90
20714;DHT22;10518;50.742;4.226;2022-12-18T14:04:40;2.70;99.90
20714;DHT22;10518;50.742;4.226;2022-12-18T14:07:27;2.70;99.90
20714;DHT22;10518;50.742;4.226;2022-12-18T14:09:55;2.50;99.90
20714;DHT22;10518;50.742;4.226;2022-12-18T14:12:27;2.70;99.90
20714;DHT22;10518;50.742;4.226;2022-12-18T14:20:30;3.00;99.90
20714;DHT22;10518;50.742;4.226;2022-12-18T14:22:57;3.00;99.90
20714;DHT22;10518;50.742;4.226;2022-12-18T14:25:27;2.90;99.90
20714;DHT22;10518;50.742;4.226;2022-12-18T14:28:07;2.70;99.90
20714;DHT22;10518;50.742;4.226;2022-12-18T14:30:41;2.70;99.90
20714;DHT22;10518;50.742;4.226;2022-12-18T14:36:00;2.30;99.90
20714;DHT22;10518;50.742;4.226;2022-12-18T14:38:38;2.30;99.90
20714;DHT22;10518;50.742;4.226;2022-12-18T14:41:15;2.60;99.90
20714;DHT22;10518;50.742;4.226;2022-12-18T14:43:44;2.70;99.90
20714;DHT22;10518;50.742;4.226;2022-12-18T14:48:55;3.10;99.90
20714;DHT22;10518;50.742;4.226;2022-12-18T14:51:23;3.10;99.90
20714;DHT22;10518;50.742;4.226;2022-12-18T14:54:16;3.10;99.90
20714;DHT22;10518;50.742;4.226;2022-12-18T14:56:51;2.90;99.90
20714;DHT22;10518;50.742;4.226;2022-12-18T14:59:26;2.40;99.90
20714;DHT22;10518;50.742;4.226;2022-12-18T15:02:12;2.20;99.90
20714;DHT22;10518;50.742;4.226;2022-12-18T15:04:41;2.30;99.90
20714;DHT22;10518;50.742;4.226;2022-12-18T15:07:17;2.30;99.90
20714;DHT22;10518;50.742;4.226;2022-12-18T15:14:59;2.50;99.90
20714;DHT22;10518;50.742;4.226;2022-12-18T15:17:24;2.40;99.90
20714;DHT22;10518;50.742;4.226;2022-12-18T15:19:53;2.60;99.90
20714;DHT22;10518;50.742;4.226;2022-12-18T15:22:30;2.50;99.90
20714;DHT22;10518;50.742;4.226;2022-12-18T15:24:59;2.70;99.90
20714;DHT22;10518;50.742;4.226;2022-12-18T15:27:36;2.70;99.90
20714;DHT22;10518;50.742;4.226;2022-12-18T15:32:36;2.50;99.90
20714;DHT22;10518;50.742;4.226;2022-12-18T15:35:13;2.80;99.90
20714;DHT22;10518;50.742;4.226;2022-12-18T15:37:40;2.70;99.90
20714;DHT22;10518;50.742;4.226;2022-12-18T15:40:06;2.70;99.90
20714;DHT22;10518;50.742;4.226;2022-12-18T15:42:32;2.60;99.90
20714;DHT22;10518;50.742;4.226;2022-12-18T15:45:16;2.70;99.90
20714;DHT22;10518;50.742;4.226;2022-12-18T15:47:42;2.60;99.90
20714;DHT22;10518;50.742;4.226;2022-12-18T15:50:08;2.70;99.90
20714;DHT22;10518;50.742;4.226;2022-12-18T15:52:39;2.60;99.90
20714;DHT22;10518;50.742;4.226;2022-12-18T15:55:23;2.60;99.90
20714;DHT22;10518;50.742;4.226;2022-12-18T15:58:09;2.80;99.90
20714;DHT22;10518;50.742;4.226;2022-12-18T16:00:36;2.60;99.90
20714;DHT22;10518;50.742;4.226;2022-12-18T16:03:04;2.60;99.90
20714;DHT22;10518;50.742;4.226;2022-12-18T16:05:30;2.70;99.90
20714;DHT22;10518;50.742;4.226;2022-12-18T16:07:56;3.00;99.90
20714;DHT22;10518;50.742;4.226;2022-12-18T16:10:22;3.20;99.90
20714;DHT22;10518;50.742;4.226;2022-12-18T16:12:49;2.90;99.90
20714;DHT22;10518;50.742;4.226;2022-12-18T16:15:15;2.80;99.90
20714;DHT22;10518;50.742;4.226;2022-12-18T16:17:45;2.70;99.90
20714;DHT22;10518;50.742;4.226;2022-12-18T16:20:20;2.70;99.90
20714;DHT22;10518;50.742;4.226;2022-12-18T16:22:46;2.90;99.90
20714;DHT22;10518;50.742;4.226;2022-12-18T16:25:28;2.90;99.90
20714;DHT22;10518;50.742;4.226;2022-12-18T16:27:55;3.00;99.90
20714;DHT22;10518;50.742;4.226;2022-12-18T16:30:30;2.90;99.90
20714;DHT22;10518;50.742;4.226;2022-12-18T16:32:57;2.70;99.90
20714;DHT22;10518;50.742;4.226;2022-12-18T16:35:23;2.70;99.90
20714;DHT22;10518;50.742;4.226;2022-12-18T16:37:49;3.00;99.90
20714;DHT22;10518;50.742;4.226;2022-12-18T16:40:16;3.00;99.90
20714;DHT22;10518;50.742;4.226;2022-12-18T16:42:43;3.10;99.90
20714;DHT22;10518;50.742;4.226;2022-12-18T16:45:12;2.90;99.90
20714;DHT22;10518;50.742;4.226;2022-12-18T16:47:38;3.00;99.90
20714;DHT22;10518;50.742;4.226;2022-12-18T16:50:04;3.00;99.90
20714;DHT22;10518;50.742;4.226;2022-12-18T16:52:30;3.00;99.90
20714;DHT22;10518;50.742;4.226;2022-12-18T16:54:56;3.00;99.90
20714;DHT22;10518;50.742;4.226;2022-12-18T16:57:22;3.10;99.90
20714;DHT22;10518;50.742;4.226;2022-12-18T16:59:48;2.80;99.90
20714;DHT22;10518;50.742;4.226;2022-12-18T17:02:16;2.70;99.90
20714;DHT22;10518;50.742;4.226;2022-12-18T17:04:43;2.70;99.90
20714;DHT22;10518;50.742;4.226;2022-12-18T17:07:09;3.00;99.90
20714;DHT22;10518;50.742;4.226;2022-12-18T17:09:36;3.20;99.90
20714;DHT22;10518;50.742;4.226;2022-12-18T17:12:02;3.30;99.90
20714;DHT22;10518;50.742;4.226;2022-12-18T17:14:28;3.20;99.90
20714;DHT22;10518;50.742;4.226;2022-12-18T17:16:54;3.00;99.90
20714;DHT22;10518;50.742;4.226;2022-12-18T17:19:22;3.30;99.90
20714;DHT22;10518;50.742;4.226;2022-12-18T17:21:49;3.20;99.90
20714;DHT22;10518;50.742;4.226;2022-12-18T17:24:16;3.20;99.90
20714;DHT22;10518;50.742;4.226;2022-12-18T17:26:41;3.10;99.90
20714;DHT22;10518;50.742;4.226;2022-12-18T17:29:07;3.30;99.90
20714;DHT22;10518;50.742;4.226;2022-12-18T17:31:33;3.40;99.90
20714;DHT22;10518;50.742;4.226;2022-12-18T17:34:00;3.50;99.90
20714;DHT22;10518;50.742;4.226;2022-12-18T17:36:26;3.40;99.90
20714;DHT22;10518;50.742;4.226;2022-12-18T17:38:58;3.20;99.90
20714;DHT22;10518;50.742;4.226;2022-12-18T17:41:25;3.40;99.90
20714;DHT22;10518;50.742;4.226;2022-12-18T17:43:55;3.30;99.90
20714;DHT22;10518;50.742;4.226;2022-12-18T17:46:21;3.00;99.90